sensor_id;sensor_type;location;lat;lon;timestamp;temperature;humidity
11650;DHT22;5881;48.522;7.682;2024-03-22T00:01:48;11.70;90.20
11650;DHT22;5881;48.522;7.682;2024-03-22T00:04:15;11.70;98.00
11650;DHT22;5881;48.522;7.682;2024-03-22T00:06:42;11.80;96.60
11650;DHT22;5881;48.522;7.682;2024-03-22T00:09:08;11.70;96.70
11650;DHT22;5881;48.522;7.682;2024-03-22T00:11:34;11.70;95.70
11650;DHT22;5881;48.522;7.682;2024-03-22T00:14:00;11.60;96.40
11650;DHT22;5881;48.522;7.682;2024-03-22T00:16:26;11.50;99.30
11650;DHT22;5881;48.522;7.682;2024-03-22T00:18:51;11.40;99.90
11650;DHT22;5881;48.522;7.682;2024-03-22T00:21:17;11.50;99.90
11650;DHT22;5881;48.522;7.682;2024-03-22T00:23:44;11.60;99.90
11650;DHT22;5881;48.522;7.682;2024-03-22T00:26:10;11.60;99.90
11650;DHT22;5881;48.522;7.682;2024-03-22T00:28:36;11.50;99.90
11650;DHT22;5881;48.522;7.682;2024-03-22T00:31:01;11.40;99.90
11650;DHT22;5881;48.522;7.682;2024-03-22T00:33:27;11.50;99.90
11650;DHT22;5881;48.522;7.682;2024-03-22T00:35:52;11.40;99.90
11650;DHT22;5881;48.522;7.682;2024-03-22T00:38:18;11.40;99.90
11650;DHT22;5881;48.522;7.682;2024-03-22T00:40:43;11.50;99.90
11650;DHT22;5881;48.522;7.682;2024-03-22T00:43:09;11.50;99.90
11650;DHT22;5881;48.522;7.682;2024-03-22T00:45:35;11.40;99.90
11650;DHT22;5881;48.522;7.682;2024-03-22T00:48:00;11.40;99.90
11650;DHT22;5881;48.522;7.682;2024-03-22T00:50:26;11.40;99.90
11650;DHT22;5881;48.522;7.682;2024-03-22T00:52:53;11.40;99.90
11650;DHT22;5881;48.522;7.682;2024-03-22T00:55:21;11.40;99.90
11650;DHT22;5881;48.522;7.682;2024-03-22T00:57:46;11.40;99.90
11650;DHT22;5881;48.522;7.682;2024-03-22T01:00:12;11.30;99.90
11650;DHT22;5881;48.522;7.682;2024-03-22T01:02:38;11.30;99.90
11650;DHT22;5881;48.522;7.682;2024-03-22T01:05:04;11.30;99.90
11650;DHT22;5881;48.522;7.682;2024-03-22T01:07:30;11.20;99.90
11650;DHT22;5881;48.522;7.682;2024-03-22T01:09:55;11.20;99.90
11650;DHT22;5881;48.522;7.682;2024-03-22T01:12:21;11.20;99.90
11650;DHT22;5881;48.522;7.682;2024-03-22T01:14:47;11.20;99.90
11650;DHT22;5881;48.522;7.682;2024-03-22T01:17:12;11.20;99.90
11650;DHT22;5881;48.522;7.682;2024-03-22T01:19:38;11.10;99.90
11650;DHT22;5881;48.522;7.682;2024-03-22T01:22:04;11.00;99.90
11650;DHT22;5881;48.522;7.682;2024-03-22T01:24:29;11.00;99.90
11650;DHT22;5881;48.522;7.682;2024-03-22T01:26:55;10.90;99.90
11650;DHT22;5881;48.522;7.682;2024-03-22T01:29:20;10.90;99.90
11650;DHT22;5881;48.522;7.682;2024-03-22T01:31:47;11.00;99.90
11650;DHT22;5881;48.522;7.682;2024-03-22T01:34:13;11.00;99.90
11650;DHT22;5881;48.522;7.682;2024-03-22T01:36:39;10.90;99.90
11650;DHT22;5881;48.522;7.682;2024-03-22T01:39:04;10.80;99.90
11650;DHT22;5881;48.522;7.682;2024-03-22T01:41:30;10.80;99.90
11650;DHT22;5881;48.522;7.682;2024-03-22T01:43:57;10.70;99.90
11650;DHT22;5881;48.522;7.682;2024-03-22T01:46:23;10.70;99.90
11650;DHT22;5881;48.522;7.682;2024-03-22T01:48:48;10.70;99.90
11650;DHT22;5881;48.522;7.682;2024-03-22T01:51:14;10.70;99.90
11650;DHT22;5881;48.522;7.682;2024-03-22T01:53:39;10.80;99.90
11650;DHT22;5881;48.522;7.682;2024-03-22T01:56:06;10.80;99.90
11650;DHT22;5881;48.522;7.682;2024-03-22T01:58:32;10.80;99.90
11650;DHT22;5881;48.522;7.682;2024-03-22T02:00:58;10.80;99.90
11650;DHT22;5881;48.522;7.682;2024-03-22T02:03:24;10.80;99.90
11650;DHT22;5881;48.522;7.682;2024-03-22T02:05:49;10.80;99.90
11650;DHT22;5881;48.522;7.682;2024-03-22T02:08:15;10.80;99.90
11650;DHT22;5881;48.522;7.682;2024-03-22T02:10:41;10.90;99.90
11650;DHT22;5881;48.522;7.682;2024-03-22T02:13:06;10.90;99.90
11650;DHT22;5881;48.522;7.682;2024-03-22T02:15:32;10.90;99.90
11650;DHT22;5881;48.522;7.682;2024-03-22T02:17:58;10.90;99.90
11650;DHT22;5881;48.522;7.682;2024-03-22T02:20:24;10.80;99.90
11650;DHT22;5881;48.522;7.682;2024-03-22T02:22:49;10.80;99.90
11650;DHT22;5881;48.522;7.682;2024-03-22T02:25:15;10.80;99.90
11650;DHT22;5881;48.522;7.682;2024-03-22T02:27:41;10.90;99.90
11650;DHT22;5881;48.522;7.682;2024-03-22T02:30:07;10.90;99.90
11650;DHT22;5881;48.522;7.682;2024-03-22T02:32:33;10.80;99.90
11650;DHT22;5881;48.522;7.682;2024-03-22T02:34:58;10.80;99.90
11650;DHT22;5881;48.522;7.682;2024-03-22T02:37:24;10.80;99.90
11650;DHT22;5881;48.522;7.682;2024-03-22T02:39:49;10.90;99.90
11650;DHT22;5881;48.522;7.682;2024-03-22T02:42:15;10.90;99.90
11650;DHT22;5881;48.522;7.682;2024-03-22T02:44:41;10.80;99.90
11650;DHT22;5881;48.522;7.682;2024-03-22T02:47:11;10.80;99.90
11650;DHT22;5881;48.522;7.682;2024-03-22T02:49:39;10.90;99.90
11650;DHT22;5881;48.522;7.682;2024-03-22T02:52:05;10.90;99.90
11650;DHT22;5881;48.522;7.682;2024-03-22T02:54:31;10.90;99.90
11650;DHT22;5881;48.522;7.682;2024-03-22T02:56:56;10.90;99.90
11650;DHT22;5881;48.522;7.682;2024-03-22T02:59:25;10.90;99.90
11650;DHT22;5881;48.522;7.682;2024-03-22T03:01:51;10.90;99.90
11650;DHT22;5881;48.522;7.682;2024-03-22T03:04:17;10.80;99.90
11650;DHT22;5881;48.522;7.682;2024-03-22T03:06:43;10.90;99.90
11650;DHT22;5881;48.522;7.682;2024-03-22T03:09:11;10.80;99.90
11650;DHT22;5881;48.522;7.682;2024-03-22T03:11:38;10.90;99.90
11650;DHT22;5881;48.522;7.682;2024-03-22T03:14:04;10.90;99.90
11650;DHT22;5881;48.522;7.682;2024-03-22T03:16:30;10.80;99.90
11650;DHT22;5881;48.522;7.682;2024-03-22T03:18:55;10.90;99.90
11650;DHT22;5881;48.522;7.682;2024-03-22T03:21:21;10.80;99.90
11650;DHT22;5881;48.522;7.682;2024-03-22T03:23:47;10.90;99.90
11650;DHT22;5881;48.522;7.682;2024-03-22T03:26:13;11.00;99.90
11650;DHT22;5881;48.522;7.682;2024-03-22T03:28:38;10.90;99.90
11650;DHT22;5881;48.522;7.682;2024-03-22T03:31:04;10.90;99.90
11650;DHT22;5881;48.522;7.682;2024-03-22T03:33:30;10.90;99.90
11650;DHT22;5881;48.522;7.682;2024-03-22T03:35:56;10.90;99.90
11650;DHT22;5881;48.522;7.682;2024-03-22T03:38:21;10.90;99.90
11650;DHT22;5881;48.522;7.682;2024-03-22T03:40:47;10.90;99.90
11650;DHT22;5881;48.522;7.682;2024-03-22T03:43:13;10.80;99.90
11650;DHT22;5881;48.522;7.682;2024-03-22T03:45:39;10.90;99.90
11650;DHT22;5881;48.522;7.682;2024-03-22T03:48:05;10.90;99.90
11650;DHT22;5881;48.522;7.682;2024-03-22T03:50:31;10.90;99.90
11650;DHT22;5881;48.522;7.682;2024-03-22T03:52:56;10.80;99.90
11650;DHT22;5881;48.522;7.682;2024-03-22T03:55:22;10.80;99.90
11650;DHT22;5881;48.522;7.682;2024-03-22T03:57:50;10.80;99.90
11650;DHT22;5881;48.522;7.682;2024-03-22T04:00:16;10.80;99.90
11650;DHT22;5881;48.522;7.682;2024-03-22T04:02:41;10.80;99.90
11650;DHT22;5881;48.522;7.682;2024-03-22T04:05:07;10.80;99.90
11650;DHT22;5881;48.522;7.682;2024-03-22T04:07:33;10.80;99.90
11650;DHT22;5881;48.522;7.682;2024-03-22T04:09:58;10.70;99.90
11650;DHT22;5881;48.522;7.682;2024-03-22T04:12:26;10.70;99.90
11650;DHT22;5881;48.522;7.682;2024-03-22T04:14:52;10.70;99.90
11650;DHT22;5881;48.522;7.682;2024-03-22T04:17:18;10.70;99.90
11650;DHT22;5881;48.522;7.682;2024-03-22T04:19:43;10.80;99.90
11650;DHT22;5881;48.522;7.682;2024-03-22T04:22:09;10.80;99.90
11650;DHT22;5881;48.522;7.682;2024-03-22T04:24:35;10.70;99.90
11650;DHT22;5881;48.522;7.682;2024-03-22T04:27:00;10.80;99.90
11650;DHT22;5881;48.522;7.682;2024-03-22T04:29:26;10.80;99.90
11650;DHT22;5881;48.522;7.682;2024-03-22T04:31:51;10.70;99.90
11650;DHT22;5881;48.522;7.682;2024-03-22T04:34:17;10.80;99.90
11650;DHT22;5881;48.522;7.682;2024-03-22T04:36:43;10.80;99.90
11650;DHT22;5881;48.522;7.682;2024-03-22T04:39:09;10.70;99.90
11650;DHT22;5881;48.522;7.682;2024-03-22T04:41:35;10.70;99.90
11650;DHT22;5881;48.522;7.682;2024-03-22T04:44:00;10.60;99.90
11650;DHT22;5881;48.522;7.682;2024-03-22T04:46:26;10.70;99.90
11650;DHT22;5881;48.522;7.682;2024-03-22T04:48:52;10.60;99.90
11650;DHT22;5881;48.522;7.682;2024-03-22T04:51:17;10.60;99.90
11650;DHT22;5881;48.522;7.682;2024-03-22T04:53:43;10.60;99.90
11650;DHT22;5881;48.522;7.682;2024-03-22T04:56:09;10.60;99.90
11650;DHT22;5881;48.522;7.682;2024-03-22T04:58:35;10.60;99.90
11650;DHT22;5881;48.522;7.682;2024-03-22T05:01:01;10.60;99.90
11650;DHT22;5881;48.522;7.682;2024-03-22T05:03:26;10.50;99.90
11650;DHT22;5881;48.522;7.682;2024-03-22T05:05:52;10.50;99.90
11650;DHT22;5881;48.522;7.682;2024-03-22T05:08:18;10.40;99.90
11650;DHT22;5881;48.522;7.682;2024-03-22T05:10:43;10.40;99.90
11650;DHT22;5881;48.522;7.682;2024-03-22T05:13:09;10.40;99.90
11650;DHT22;5881;48.522;7.682;2024-03-22T05:15:35;10.40;99.90
11650;DHT22;5881;48.522;7.682;2024-03-22T05:18:00;10.40;99.90
11650;DHT22;5881;48.522;7.682;2024-03-22T05:20:26;10.20;99.90
11650;DHT22;5881;48.522;7.682;2024-03-22T05:22:52;10.30;99.90
11650;DHT22;5881;48.522;7.682;2024-03-22T05:25:18;10.30;99.90
11650;DHT22;5881;48.522;7.682;2024-03-22T05:27:44;10.40;99.90
11650;DHT22;5881;48.522;7.682;2024-03-22T05:30:10;10.20;99.90
11650;DHT22;5881;48.522;7.682;2024-03-22T05:32:37;10.20;99.90
11650;DHT22;5881;48.522;7.682;2024-03-22T05:35:03;10.20;99.90
11650;DHT22;5881;48.522;7.682;2024-03-22T05:37:28;10.20;99.90
11650;DHT22;5881;48.522;7.682;2024-03-22T05:39:54;10.10;99.90
11650;DHT22;5881;48.522;7.682;2024-03-22T05:42:22;10.20;99.90
11650;DHT22;5881;48.522;7.682;2024-03-22T05:44:48;10.20;99.90
11650;DHT22;5881;48.522;7.682;2024-03-22T05:47:13;10.20;99.90
11650;DHT22;5881;48.522;7.682;2024-03-22T05:49:39;10.20;99.90
11650;DHT22;5881;48.522;7.682;2024-03-22T05:52:05;10.30;99.90
11650;DHT22;5881;48.522;7.682;2024-03-22T05:54:30;10.40;99.90
11650;DHT22;5881;48.522;7.682;2024-03-22T05:56:56;10.40;99.90
11650;DHT22;5881;48.522;7.682;2024-03-22T05:59:22;10.40;99.90
11650;DHT22;5881;48.522;7.682;2024-03-22T06:01:47;10.50;99.90
11650;DHT22;5881;48.522;7.682;2024-03-22T06:04:13;10.60;99.90
11650;DHT22;5881;48.522;7.682;2024-03-22T06:06:38;10.60;99.90
11650;DHT22;5881;48.522;7.682;2024-03-22T06:09:04;10.70;99.90
11650;DHT22;5881;48.522;7.682;2024-03-22T06:11:34;10.80;99.90
11650;DHT22;5881;48.522;7.682;2024-03-22T06:13:59;10.90;99.90
11650;DHT22;5881;48.522;7.682;2024-03-22T06:16:25;11.00;99.90
11650;DHT22;5881;48.522;7.682;2024-03-22T06:18:51;11.00;99.90
11650;DHT22;5881;48.522;7.682;2024-03-22T06:21:17;11.20;99.90
11650;DHT22;5881;48.522;7.682;2024-03-22T06:27:47;11.30;99.90
11650;DHT22;5881;48.522;7.682;2024-03-22T06:30:14;11.30;99.90
11650;DHT22;5881;48.522;7.682;2024-03-22T06:32:40;11.50;99.90
11650;DHT22;5881;48.522;7.682;2024-03-22T06:35:06;11.60;99.90
11650;DHT22;5881;48.522;7.682;2024-03-22T06:37:31;11.40;99.90
11650;DHT22;5881;48.522;7.682;2024-03-22T06:39:57;11.70;99.90
11650;DHT22;5881;48.522;7.682;2024-03-22T06:42:24;11.70;99.90
11650;DHT22;5881;48.522;7.682;2024-03-22T06:44:49;11.80;99.90
11650;DHT22;5881;48.522;7.682;2024-03-22T06:47:15;12.00;99.50
11650;DHT22;5881;48.522;7.682;2024-03-22T06:49:40;12.20;92.00
11650;DHT22;5881;48.522;7.682;2024-03-22T06:52:06;12.50;85.80
11650;DHT22;5881;48.522;7.682;2024-03-22T06:54:32;12.60;79.70
11650;DHT22;5881;48.522;7.682;2024-03-22T06:56:57;12.80;62.60
11650;DHT22;5881;48.522;7.682;2024-03-22T06:59:23;12.90;56.90
11650;DHT22;5881;48.522;7.682;2024-03-22T07:01:48;13.50;46.50
11650;DHT22;5881;48.522;7.682;2024-03-22T07:04:14;13.60;32.10
11650;DHT22;5881;48.522;7.682;2024-03-22T07:06:40;14.80;27.10
11650;DHT22;5881;48.522;7.682;2024-03-22T07:09:10;16.40;6.50
11650;DHT22;5881;48.522;7.682;2024-03-22T07:12:22;16.70;1.00
11650;DHT22;5881;48.522;7.682;2024-03-22T07:15:11;18.10;1.00
11650;DHT22;5881;48.522;7.682;2024-03-22T07:17:36;19.50;1.00
11650;DHT22;5881;48.522;7.682;2024-03-22T07:20:02;20.10;1.00
11650;DHT22;5881;48.522;7.682;2024-03-22T07:22:28;20.10;1.00
11650;DHT22;5881;48.522;7.682;2024-03-22T07:24:54;19.20;1.00
11650;DHT22;5881;48.522;7.682;2024-03-22T07:27:20;19.40;1.00
11650;DHT22;5881;48.522;7.682;2024-03-22T07:29:46;19.40;1.00
11650;DHT22;5881;48.522;7.682;2024-03-22T07:32:12;18.60;1.00
11650;DHT22;5881;48.522;7.682;2024-03-22T07:34:37;18.20;1.00
11650;DHT22;5881;48.522;7.682;2024-03-22T07:37:03;18.00;1.00
11650;DHT22;5881;48.522;7.682;2024-03-22T07:39:29;19.00;1.00
11650;DHT22;5881;48.522;7.682;2024-03-22T07:41:55;19.50;1.00
11650;DHT22;5881;48.522;7.682;2024-03-22T07:44:21;19.60;1.00
11650;DHT22;5881;48.522;7.682;2024-03-22T07:46:49;19.30;1.00
11650;DHT22;5881;48.522;7.682;2024-03-22T07:49:14;19.70;1.00
11650;DHT22;5881;48.522;7.682;2024-03-22T07:51:40;19.80;1.00
11650;DHT22;5881;48.522;7.682;2024-03-22T07:54:06;19.70;1.00
11650;DHT22;5881;48.522;7.682;2024-03-22T07:56:31;19.60;1.00
11650;DHT22;5881;48.522;7.682;2024-03-22T07:58:57;19.60;1.00
11650;DHT22;5881;48.522;7.682;2024-03-22T08:01:23;20.20;1.00
11650;DHT22;5881;48.522;7.682;2024-03-22T08:03:49;19.30;99.90
11650;DHT22;5881;48.522;7.682;2024-03-22T08:06:15;19.40;1.00
11650;DHT22;5881;48.522;7.682;2024-03-22T08:08:41;20.20;1.00
11650;DHT22;5881;48.522;7.682;2024-03-22T08:11:06;20.00;1.00
11650;DHT22;5881;48.522;7.682;2024-03-22T08:13:32;19.70;1.00
11650;DHT22;5881;48.522;7.682;2024-03-22T08:15:57;22.30;1.00
11650;DHT22;5881;48.522;7.682;2024-03-22T08:18:23;21.20;1.00
11650;DHT22;5881;48.522;7.682;2024-03-22T08:20:49;21.00;1.00
11650;DHT22;5881;48.522;7.682;2024-03-22T08:23:14;21.60;1.00
11650;DHT22;5881;48.522;7.682;2024-03-22T08:25:40;22.20;1.00
11650;DHT22;5881;48.522;7.682;2024-03-22T08:28:05;22.40;1.00
11650;DHT22;5881;48.522;7.682;2024-03-22T08:30:31;20.70;1.00
11650;DHT22;5881;48.522;7.682;2024-03-22T08:32:56;20.70;1.00
11650;DHT22;5881;48.522;7.682;2024-03-22T08:35:22;19.80;1.00
11650;DHT22;5881;48.522;7.682;2024-03-22T08:37:48;20.60;1.00
11650;DHT22;5881;48.522;7.682;2024-03-22T08:40:13;21.40;1.00
11650;DHT22;5881;48.522;7.682;2024-03-22T08:42:39;21.20;1.00
11650;DHT22;5881;48.522;7.682;2024-03-22T08:45:06;21.10;1.00
11650;DHT22;5881;48.522;7.682;2024-03-22T08:47:31;21.30;1.00
11650;DHT22;5881;48.522;7.682;2024-03-22T08:49:59;21.40;1.00
11650;DHT22;5881;48.522;7.682;2024-03-22T08:52:24;22.10;1.00
11650;DHT22;5881;48.522;7.682;2024-03-22T08:54:54;24.00;1.00
11650;DHT22;5881;48.522;7.682;2024-03-22T08:57:19;23.00;1.00
11650;DHT22;5881;48.522;7.682;2024-03-22T08:59:45;22.40;1.00
11650;DHT22;5881;48.522;7.682;2024-03-22T09:02:11;22.30;1.00
11650;DHT22;5881;48.522;7.682;2024-03-22T09:04:37;22.10;1.00
11650;DHT22;5881;48.522;7.682;2024-03-22T09:07:03;24.00;1.00
11650;DHT22;5881;48.522;7.682;2024-03-22T09:09:29;25.00;1.00
11650;DHT22;5881;48.522;7.682;2024-03-22T09:11:55;26.50;1.00
11650;DHT22;5881;48.522;7.682;2024-03-22T09:14:20;24.40;1.00
11650;DHT22;5881;48.522;7.682;2024-03-22T09:16:46;25.30;1.00
11650;DHT22;5881;48.522;7.682;2024-03-22T09:19:11;25.30;1.00
11650;DHT22;5881;48.522;7.682;2024-03-22T09:21:37;25.10;1.00
11650;DHT22;5881;48.522;7.682;2024-03-22T09:24:06;24.40;1.00
11650;DHT22;5881;48.522;7.682;2024-03-22T09:26:32;24.40;1.00
11650;DHT22;5881;48.522;7.682;2024-03-22T09:28:58;24.20;1.00
11650;DHT22;5881;48.522;7.682;2024-03-22T09:31:24;24.20;1.00
11650;DHT22;5881;48.522;7.682;2024-03-22T09:33:49;25.00;1.00
11650;DHT22;5881;48.522;7.682;2024-03-22T09:36:15;24.80;1.00
11650;DHT22;5881;48.522;7.682;2024-03-22T09:38:41;23.50;1.00
11650;DHT22;5881;48.522;7.682;2024-03-22T09:41:07;23.60;1.00
11650;DHT22;5881;48.522;7.682;2024-03-22T09:43:33;22.40;1.00
11650;DHT22;5881;48.522;7.682;2024-03-22T09:46:00;21.60;1.00
11650;DHT22;5881;48.522;7.682;2024-03-22T09:48:26;21.70;1.00
11650;DHT22;5881;48.522;7.682;2024-03-22T09:50:54;21.40;1.00
11650;DHT22;5881;48.522;7.682;2024-03-22T09:53:21;21.50;1.00
11650;DHT22;5881;48.522;7.682;2024-03-22T09:55:48;20.90;1.00
11650;DHT22;5881;48.522;7.682;2024-03-22T09:58:14;20.90;1.00
11650;DHT22;5881;48.522;7.682;2024-03-22T10:00:42;21.90;1.00
11650;DHT22;5881;48.522;7.682;2024-03-22T10:03:08;21.30;1.00
11650;DHT22;5881;48.522;7.682;2024-03-22T10:05:34;21.50;1.00
11650;DHT22;5881;48.522;7.682;2024-03-22T10:08:00;21.30;1.00
11650;DHT22;5881;48.522;7.682;2024-03-22T10:10:27;20.40;1.00
11650;DHT22;5881;48.522;7.682;2024-03-22T10:12:52;21.30;1.00
11650;DHT22;5881;48.522;7.682;2024-03-22T10:15:18;21.80;1.00
11650;DHT22;5881;48.522;7.682;2024-03-22T10:17:44;21.10;1.00
11650;DHT22;5881;48.522;7.682;2024-03-22T10:20:13;21.60;1.00
11650;DHT22;5881;48.522;7.682;2024-03-22T10:22:50;23.10;1.00
11650;DHT22;5881;48.522;7.682;2024-03-22T10:25:20;23.00;1.00
11650;DHT22;5881;48.522;7.682;2024-03-22T10:27:45;23.60;1.00
11650;DHT22;5881;48.522;7.682;2024-03-22T10:30:12;24.00;1.00
11650;DHT22;5881;48.522;7.682;2024-03-22T10:32:40;24.00;1.00
11650;DHT22;5881;48.522;7.682;2024-03-22T10:35:07;23.10;1.00
11650;DHT22;5881;48.522;7.682;2024-03-22T10:37:34;23.40;1.00
11650;DHT22;5881;48.522;7.682;2024-03-22T10:40:03;23.90;1.00
11650;DHT22;5881;48.522;7.682;2024-03-22T10:42:39;23.50;1.00
11650;DHT22;5881;48.522;7.682;2024-03-22T10:45:06;23.60;1.00
11650;DHT22;5881;48.522;7.682;2024-03-22T10:47:34;24.50;1.00
11650;DHT22;5881;48.522;7.682;2024-03-22T10:52:45;24.40;1.00
11650;DHT22;5881;48.522;7.682;2024-03-22T10:57:58;22.60;1.00
11650;DHT22;5881;48.522;7.682;2024-03-22T11:00:28;21.60;1.00
11650;DHT22;5881;48.522;7.682;2024-03-22T11:02:55;21.90;1.00
11650;DHT22;5881;48.522;7.682;2024-03-22T11:05:21;22.10;1.00
11650;DHT22;5881;48.522;7.682;2024-03-22T11:07:46;22.80;1.00
11650;DHT22;5881;48.522;7.682;2024-03-22T11:10:13;21.90;1.00
11650;DHT22;5881;48.522;7.682;2024-03-22T11:12:40;22.10;1.00
11650;DHT22;5881;48.522;7.682;2024-03-22T11:15:06;21.80;1.00
11650;DHT22;5881;48.522;7.682;2024-03-22T11:17:31;21.40;1.00
11650;DHT22;5881;48.522;7.682;2024-03-22T11:19:57;21.00;1.00
11650;DHT22;5881;48.522;7.682;2024-03-22T11:22:25;20.60;1.00
11650;DHT22;5881;48.522;7.682;2024-03-22T11:24:52;21.20;1.00
11650;DHT22;5881;48.522;7.682;2024-03-22T11:27:18;20.80;1.00
11650;DHT22;5881;48.522;7.682;2024-03-22T11:29:44;20.90;1.00
11650;DHT22;5881;48.522;7.682;2024-03-22T11:32:12;20.50;1.00
11650;DHT22;5881;48.522;7.682;2024-03-22T11:34:39;20.20;1.00
11650;DHT22;5881;48.522;7.682;2024-03-22T11:37:06;20.30;1.00
11650;DHT22;5881;48.522;7.682;2024-03-22T11:39:40;20.20;1.00
11650;DHT22;5881;48.522;7.682;2024-03-22T11:42:06;20.10;1.00
11650;DHT22;5881;48.522;7.682;2024-03-22T11:44:36;20.50;1.00
11650;DHT22;5881;48.522;7.682;2024-03-22T11:47:02;20.30;1.00
11650;DHT22;5881;48.522;7.682;2024-03-22T11:49:28;20.20;1.00
11650;DHT22;5881;48.522;7.682;2024-03-22T11:51:56;20.70;1.00
11650;DHT22;5881;48.522;7.682;2024-03-22T11:54:22;21.10;1.00
11650;DHT22;5881;48.522;7.682;2024-03-22T11:56:49;20.80;1.00
11650;DHT22;5881;48.522;7.682;2024-03-22T11:59:17;20.20;1.00
11650;DHT22;5881;48.522;7.682;2024-03-22T12:01:44;20.50;1.00
11650;DHT22;5881;48.522;7.682;2024-03-22T12:04:29;20.60;1.00
11650;DHT22;5881;48.522;7.682;2024-03-22T12:07:34;20.30;1.00
11650;DHT22;5881;48.522;7.682;2024-03-22T12:10:07;20.50;1.00
11650;DHT22;5881;48.522;7.682;2024-03-22T12:12:33;20.80;1.00
11650;DHT22;5881;48.522;7.682;2024-03-22T12:14:59;20.60;1.00
11650;DHT22;5881;48.522;7.682;2024-03-22T12:17:24;20.50;1.00
11650;DHT22;5881;48.522;7.682;2024-03-22T12:19:50;20.70;1.00
11650;DHT22;5881;48.522;7.682;2024-03-22T12:22:15;21.00;1.00
11650;DHT22;5881;48.522;7.682;2024-03-22T12:24:41;20.80;1.00
11650;DHT22;5881;48.522;7.682;2024-03-22T12:27:37;20.70;1.00
11650;DHT22;5881;48.522;7.682;2024-03-22T12:30:03;21.00;1.00
11650;DHT22;5881;48.522;7.682;2024-03-22T12:32:29;20.90;1.00
11650;DHT22;5881;48.522;7.682;2024-03-22T12:34:54;20.70;1.00
11650;DHT22;5881;48.522;7.682;2024-03-22T12:37:20;20.70;1.00
11650;DHT22;5881;48.522;7.682;2024-03-22T12:39:45;21.10;1.00
11650;DHT22;5881;48.522;7.682;2024-03-22T12:42:12;21.20;1.00
11650;DHT22;5881;48.522;7.682;2024-03-22T12:44:38;21.10;1.00
11650;DHT22;5881;48.522;7.682;2024-03-22T12:47:04;21.10;1.00
11650;DHT22;5881;48.522;7.682;2024-03-22T12:49:29;21.00;1.00
11650;DHT22;5881;48.522;7.682;2024-03-22T12:51:55;21.00;1.00
11650;DHT22;5881;48.522;7.682;2024-03-22T12:54:22;20.90;1.00
11650;DHT22;5881;48.522;7.682;2024-03-22T12:56:47;21.20;1.00
11650;DHT22;5881;48.522;7.682;2024-03-22T12:59:13;21.00;1.00
11650;DHT22;5881;48.522;7.682;2024-03-22T13:01:39;20.50;1.00
11650;DHT22;5881;48.522;7.682;2024-03-22T13:04:04;20.40;1.00
11650;DHT22;5881;48.522;7.682;2024-03-22T13:06:30;20.10;1.00
11650;DHT22;5881;48.522;7.682;2024-03-22T13:08:56;20.30;1.00
11650;DHT22;5881;48.522;7.682;2024-03-22T13:11:22;20.20;1.00
11650;DHT22;5881;48.522;7.682;2024-03-22T13:13:48;20.20;1.00
11650;DHT22;5881;48.522;7.682;2024-03-22T13:16:13;20.20;1.00
11650;DHT22;5881;48.522;7.682;2024-03-22T13:18:41;20.10;1.00
11650;DHT22;5881;48.522;7.682;2024-03-22T13:21:07;20.10;1.00
11650;DHT22;5881;48.522;7.682;2024-03-22T13:23:32;20.20;1.00
11650;DHT22;5881;48.522;7.682;2024-03-22T13:26:03;20.20;1.00
11650;DHT22;5881;48.522;7.682;2024-03-22T13:28:29;20.00;1.00
11650;DHT22;5881;48.522;7.682;2024-03-22T13:31:04;20.30;1.00
11650;DHT22;5881;48.522;7.682;2024-03-22T13:33:34;20.30;1.00
11650;DHT22;5881;48.522;7.682;2024-03-22T13:36:00;20.30;1.00
11650;DHT22;5881;48.522;7.682;2024-03-22T13:38:25;20.10;1.00
11650;DHT22;5881;48.522;7.682;2024-03-22T13:40:55;20.00;1.00
11650;DHT22;5881;48.522;7.682;2024-03-22T13:43:21;20.10;1.00
11650;DHT22;5881;48.522;7.682;2024-03-22T13:45:50;20.30;1.00
11650;DHT22;5881;48.522;7.682;2024-03-22T13:48:19;20.30;1.00
11650;DHT22;5881;48.522;7.682;2024-03-22T13:50:46;20.20;1.00
11650;DHT22;5881;48.522;7.682;2024-03-22T13:53:11;20.20;1.00
11650;DHT22;5881;48.522;7.682;2024-03-22T13:55:37;19.90;1.00
11650;DHT22;5881;48.522;7.682;2024-03-22T13:58:03;19.80;1.00
11650;DHT22;5881;48.522;7.682;2024-03-22T14:00:29;19.90;1.00
11650;DHT22;5881;48.522;7.682;2024-03-22T14:02:54;19.80;1.00
11650;DHT22;5881;48.522;7.682;2024-03-22T14:05:21;19.60;1.00
11650;DHT22;5881;48.522;7.682;2024-03-22T14:07:49;19.60;1.00
11650;DHT22;5881;48.522;7.682;2024-03-22T14:10:15;19.60;1.00
11650;DHT22;5881;48.522;7.682;2024-03-22T14:12:42;19.70;1.00
11650;DHT22;5881;48.522;7.682;2024-03-22T14:15:08;19.50;1.00
11650;DHT22;5881;48.522;7.682;2024-03-22T14:17:34;19.90;1.00
11650;DHT22;5881;48.522;7.682;2024-03-22T14:19:59;19.80;1.00
11650;DHT22;5881;48.522;7.682;2024-03-22T14:22:25;19.60;1.00
11650;DHT22;5881;48.522;7.682;2024-03-22T14:24:51;19.70;1.00
11650;DHT22;5881;48.522;7.682;2024-03-22T14:27:17;19.70;1.00
11650;DHT22;5881;48.522;7.682;2024-03-22T14:29:45;19.80;1.00
11650;DHT22;5881;48.522;7.682;2024-03-22T14:32:11;20.00;1.00
11650;DHT22;5881;48.522;7.682;2024-03-22T14:34:36;20.20;1.00
11650;DHT22;5881;48.522;7.682;2024-03-22T14:37:03;20.20;1.00
11650;DHT22;5881;48.522;7.682;2024-03-22T14:39:29;20.20;1.00
11650;DHT22;5881;48.522;7.682;2024-03-22T14:41:55;20.10;1.00
11650;DHT22;5881;48.522;7.682;2024-03-22T14:44:20;20.30;1.00
11650;DHT22;5881;48.522;7.682;2024-03-22T14:46:46;20.30;1.00
11650;DHT22;5881;48.522;7.682;2024-03-22T14:49:12;20.30;1.00
11650;DHT22;5881;48.522;7.682;2024-03-22T14:51:38;20.30;1.00
11650;DHT22;5881;48.522;7.682;2024-03-22T14:54:03;20.20;1.00
11650;DHT22;5881;48.522;7.682;2024-03-22T14:56:30;20.20;1.00
11650;DHT22;5881;48.522;7.682;2024-03-22T14:58:55;20.30;1.00
11650;DHT22;5881;48.522;7.682;2024-03-22T15:01:23;20.20;1.00
11650;DHT22;5881;48.522;7.682;2024-03-22T15:03:48;20.10;1.00
11650;DHT22;5881;48.522;7.682;2024-03-22T15:06:15;20.20;1.00
11650;DHT22;5881;48.522;7.682;2024-03-22T15:08:41;20.20;1.00
11650;DHT22;5881;48.522;7.682;2024-03-22T15:11:06;20.20;1.00
11650;DHT22;5881;48.522;7.682;2024-03-22T15:13:32;20.20;1.00
11650;DHT22;5881;48.522;7.682;2024-03-22T15:15:58;20.20;1.00
11650;DHT22;5881;48.522;7.682;2024-03-22T15:18:28;20.20;1.00
11650;DHT22;5881;48.522;7.682;2024-03-22T15:20:54;20.20;1.00
11650;DHT22;5881;48.522;7.682;2024-03-22T15:23:20;20.20;1.00
11650;DHT22;5881;48.522;7.682;2024-03-22T15:25:46;20.20;1.00
11650;DHT22;5881;48.522;7.682;2024-03-22T15:28:12;20.20;1.00
11650;DHT22;5881;48.522;7.682;2024-03-22T15:30:39;20.20;1.00
11650;DHT22;5881;48.522;7.682;2024-03-22T15:33:04;20.30;1.00
11650;DHT22;5881;48.522;7.682;2024-03-22T15:35:31;20.50;1.00
11650;DHT22;5881;48.522;7.682;2024-03-22T15:37:57;20.50;1.00
11650;DHT22;5881;48.522;7.682;2024-03-22T15:40:23;20.60;1.00
11650;DHT22;5881;48.522;7.682;2024-03-22T15:42:49;20.60;1.00
11650;DHT22;5881;48.522;7.682;2024-03-22T15:45:15;20.80;1.00
11650;DHT22;5881;48.522;7.682;2024-03-22T15:47:40;21.10;1.00
11650;DHT22;5881;48.522;7.682;2024-03-22T15:50:07;20.80;1.00
11650;DHT22;5881;48.522;7.682;2024-03-22T15:52:32;20.60;1.00
11650;DHT22;5881;48.522;7.682;2024-03-22T15:54:59;20.60;1.00
11650;DHT22;5881;48.522;7.682;2024-03-22T15:57:25;20.50;1.00
11650;DHT22;5881;48.522;7.682;2024-03-22T15:59:51;20.60;1.00